createdAt,value
2023-05-10T00:00:49.021Z,1.33
2023-05-10T00:01:49.015Z,1.30
2023-05-10T00:02:49.075Z,1.25
2023-05-10T00:03:49.094Z,1.31
2023-05-10T00:04:48.987Z,1.33
2023-05-10T00:05:49.019Z,1.24
2023-05-10T00:06:48.975Z,1.33
2023-05-10T00:07:48.967Z,1.34
2023-05-10T00:08:48.964Z,1.29
2023-05-10T00:09:48.944Z,1.23
2023-05-10T00:10:48.957Z,1.26
2023-05-10T00:11:48.941Z,1.28
2023-05-10T00:12:48.997Z,1.27
2023-05-10T00:13:48.940Z,1.24
2023-05-10T00:14:48.947Z,1.25
2023-05-10T00:15:48.939Z,1.27
2023-05-10T00:16:48.990Z,1.27
2023-05-10T00:17:48.964Z,1.33
2023-05-10T00:18:48.928Z,1.32
2023-05-10T00:19:48.919Z,1.32
2023-05-10T00:20:48.909Z,1.32
2023-05-10T00:21:48.911Z,1.33
2023-05-10T00:22:48.923Z,1.34
2023-05-10T00:23:48.893Z,1.35
2023-05-10T00:24:48.897Z,1.38
2023-05-10T00:25:48.893Z,1.34
2023-05-10T00:26:48.901Z,1.34
2023-05-10T00:27:48.872Z,1.34
2023-05-10T00:28:48.878Z,1.35
2023-05-10T00:29:48.840Z,1.29
2023-05-10T00:30:48.839Z,1.28
2023-05-10T00:31:48.901Z,1.30
2023-05-10T00:32:48.843Z,1.29
2023-05-10T00:33:48.816Z,1.25
2023-05-10T00:34:48.817Z,1.29
2023-05-10T00:35:48.811Z,1.27
2023-05-10T00:36:48.812Z,1.25
2023-05-10T00:37:48.790Z,1.28
2023-05-10T00:38:48.801Z,1.23
2023-05-10T00:39:48.765Z,1.24
2023-05-10T00:40:48.795Z,1.24
2023-05-10T00:41:48.759Z,1.23
2023-05-10T00:42:48.757Z,1.26
2023-05-10T00:43:48.764Z,1.30
2023-05-10T00:44:48.735Z,1.33
2023-05-10T00:45:48.786Z,1.29
2023-05-10T00:46:48.787Z,1.29
2023-05-10T00:47:48.817Z,1.30
2023-05-10T00:48:48.793Z,1.28
2023-05-10T00:49:48.796Z,1.31
2023-05-10T00:50:48.812Z,1.28
2023-05-10T00:51:48.850Z,1.26
2023-05-10T00:52:48.887Z,1.29
2023-05-10T00:53:48.903Z,1.27
2023-05-10T00:54:48.919Z,1.25
2023-05-10T00:55:48.913Z,1.24
2023-05-10T00:56:48.949Z,1.18
2023-05-10T00:57:48.953Z,1.19
2023-05-10T00:58:48.962Z,1.19
2023-05-10T00:59:48.964Z,1.20
2023-05-10T01:00:48.968Z,1.23
2023-05-10T01:01:49.005Z,1.24
2023-05-10T01:02:49.052Z,1.21
2023-05-10T01:03:48.945Z,1.28
2023-05-10T01:04:48.967Z,1.22
2023-05-10T01:05:48.946Z,1.22
2023-05-10T01:06:48.937Z,1.21
2023-05-10T01:07:48.938Z,1.22
2023-05-10T01:08:48.925Z,1.23
2023-05-10T01:09:48.917Z,1.25
2023-05-10T01:10:48.920Z,1.24
2023-05-10T01:11:48.894Z,1.26
2023-05-10T01:12:48.930Z,1.29
2023-05-10T01:13:48.911Z,1.26
2023-05-10T01:14:48.909Z,1.28
2023-05-10T01:15:48.905Z,1.23
2023-05-10T01:16:48.874Z,1.22
2023-05-10T01:17:48.912Z,1.21
2023-05-10T01:18:48.861Z,1.18
2023-05-10T01:19:48.852Z,1.19
2023-05-10T01:20:48.854Z,1.16
2023-05-10T01:21:48.851Z,1.20
2023-05-10T01:22:48.859Z,1.19
2023-05-10T01:23:48.889Z,1.19
2023-05-10T01:24:48.902Z,1.19
2023-05-10T01:25:48.932Z,1.24
2023-05-10T01:26:48.937Z,1.22
2023-05-10T01:27:48.974Z,1.27
2023-05-10T01:28:48.982Z,1.25
2023-05-10T01:29:53.457Z,1.21
2023-05-10T01:30:49.996Z,1.21
2023-05-10T01:31:49.021Z,1.22
2023-05-10T01:32:49.108Z,1.23
2023-05-10T01:33:49.003Z,1.22
2023-05-10T01:34:48.969Z,1.23
2023-05-10T01:35:48.957Z,1.28
2023-05-10T01:36:48.948Z,1.25
2023-05-10T01:37:48.959Z,1.30
2023-05-10T01:38:48.965Z,1.24
2023-05-10T01:39:48.951Z,1.19
2023-05-10T01:40:48.951Z,1.21
2023-05-10T01:41:48.983Z,1.20
2023-05-10T01:42:48.922Z,1.20
2023-05-10T01:43:48.957Z,1.22
2023-05-10T01:44:48.986Z,1.25
2023-05-10T01:45:48.927Z,1.23
2023-05-10T01:46:48.941Z,1.23
2023-05-10T01:47:49.876Z,1.26
2023-05-10T01:48:48.904Z,1.25
2023-05-10T01:49:48.902Z,1.27
2023-05-10T01:50:48.899Z,1.24
2023-05-10T01:51:48.908Z,1.22
2023-05-10T01:52:48.912Z,1.21
2023-05-10T01:53:48.947Z,1.21
2023-05-10T01:54:48.929Z,1.21
2023-05-10T01:55:48.915Z,1.21
2023-05-10T01:56:48.925Z,1.21
2023-05-10T01:57:48.913Z,1.21
2023-05-10T01:58:48.914Z,1.22
2023-05-10T01:59:48.917Z,1.23
2023-05-10T02:00:48.962Z,1.25
2023-05-10T02:01:48.937Z,1.25
2023-05-10T02:02:48.958Z,1.25
2023-05-10T02:03:48.995Z,1.28
2023-05-10T02:04:48.926Z,1.26
2023-05-10T02:05:48.930Z,1.24
2023-05-10T02:06:48.929Z,1.24
2023-05-10T02:07:48.941Z,1.29
2023-05-10T02:08:48.940Z,1.27
2023-05-10T02:09:48.966Z,1.28
2023-05-10T02:10:48.944Z,1.26
2023-05-10T02:11:48.944Z,1.29
2023-05-10T02:12:48.966Z,1.28
2023-05-10T02:13:48.943Z,1.23
2023-05-10T02:14:48.941Z,1.17
2023-05-10T02:15:48.942Z,1.23
2023-05-10T02:16:49.056Z,1.25
2023-05-10T02:17:48.956Z,1.18
2023-05-10T02:18:48.945Z,1.23
2023-05-10T02:19:48.952Z,1.26
2023-05-10T02:20:48.943Z,1.22
2023-05-10T02:21:48.963Z,1.24
2023-05-10T02:22:48.995Z,1.23
2023-05-10T02:23:49.028Z,1.24
2023-05-10T02:24:49.035Z,1.26
2023-05-10T02:25:49.072Z,1.21
2023-05-10T02:26:49.109Z,1.26
2023-05-10T02:27:49.134Z,1.28
2023-05-10T02:28:49.170Z,1.28
2023-05-10T02:29:49.213Z,1.30
2023-05-10T02:30:49.253Z,1.26
2023-05-10T02:31:49.290Z,1.23
2023-05-10T02:32:49.351Z,1.25
2023-05-10T02:33:49.320Z,1.32
2023-05-10T02:34:49.355Z,1.28
2023-05-10T02:35:49.386Z,1.27
2023-05-10T02:36:49.423Z,1.29
2023-05-10T02:37:49.433Z,1.29
2023-05-10T02:38:49.430Z,1.29
2023-05-10T02:39:49.420Z,1.30
2023-05-10T02:40:49.424Z,1.30
2023-05-10T02:41:49.432Z,1.34
2023-05-10T02:42:49.424Z,1.29
2023-05-10T02:43:49.450Z,1.26
2023-05-10T02:44:49.453Z,1.29
2023-05-10T02:45:49.511Z,1.26
2023-05-10T02:46:49.439Z,1.23
2023-05-10T02:47:49.471Z,1.25
2023-05-10T02:48:49.449Z,1.24
2023-05-10T02:49:49.439Z,1.24
2023-05-10T02:50:49.448Z,1.23
2023-05-10T02:51:49.464Z,1.23
2023-05-10T02:52:49.447Z,1.23
2023-05-10T02:53:49.458Z,1.24
2023-05-10T02:54:49.453Z,1.25
2023-05-10T02:55:49.453Z,1.27
2023-05-10T02:56:49.454Z,1.27
2023-05-10T02:57:49.465Z,1.28
2023-05-10T02:58:49.467Z,1.23
2023-05-10T02:59:49.478Z,1.28
2023-05-10T03:00:49.468Z,1.29
2023-05-10T03:01:49.564Z,1.25
2023-05-10T03:02:49.508Z,1.29
2023-05-10T03:03:49.486Z,1.25
2023-05-10T03:04:49.562Z,1.28
2023-05-10T03:05:49.484Z,1.28
2023-05-10T03:06:49.504Z,1.27
2023-05-10T03:07:49.507Z,1.29
2023-05-10T03:08:49.505Z,1.26
2023-05-10T03:09:49.501Z,1.29
2023-05-10T03:10:49.511Z,1.25
2023-05-10T03:11:49.523Z,1.23
2023-05-10T03:12:49.576Z,1.27
2023-05-10T03:13:49.542Z,1.25
2023-05-10T03:14:49.523Z,1.24
2023-05-10T03:15:49.576Z,1.29
2023-05-10T03:16:49.589Z,1.28
2023-05-10T03:17:49.688Z,1.27
2023-05-10T03:18:49.652Z,1.29
2023-05-10T03:19:49.686Z,1.23
2023-05-10T03:20:49.742Z,1.27
2023-05-10T03:21:49.743Z,1.29
2023-05-10T03:22:49.773Z,1.25
2023-05-10T03:23:49.839Z,1.22
2023-05-10T03:24:49.838Z,1.17
2023-05-10T03:25:49.871Z,1.22
2023-05-10T03:26:49.934Z,1.24
2023-05-10T03:27:49.948Z,1.25
2023-05-10T03:28:49.983Z,1.26
2023-05-10T03:29:50.017Z,1.25
2023-05-10T03:30:50.050Z,1.24
2023-05-10T03:31:50.113Z,1.28
2023-05-10T03:32:50.196Z,1.24
2023-05-10T03:33:50.177Z,1.25
2023-05-10T03:34:50.197Z,1.25
2023-05-10T03:35:50.229Z,1.27
2023-05-10T03:36:50.249Z,1.28
2023-05-10T03:37:50.299Z,1.26
2023-05-10T03:38:50.339Z,1.28
2023-05-10T03:39:50.354Z,1.25
2023-05-10T03:40:50.390Z,1.22
2023-05-10T03:41:50.422Z,1.23
2023-05-10T03:42:50.443Z,1.23
2023-05-10T03:43:50.450Z,1.24
2023-05-10T03:44:50.485Z,1.25
2023-05-10T03:45:50.460Z,1.27
2023-05-10T03:46:50.486Z,1.28
2023-05-10T03:47:50.498Z,1.24
2023-05-10T03:48:50.467Z,1.28
2023-05-10T03:49:50.462Z,1.26
2023-05-10T03:50:50.467Z,1.22
2023-05-10T03:51:50.457Z,1.26
2023-05-10T03:52:51.008Z,1.19
2023-05-10T03:53:50.475Z,1.25
2023-05-10T03:54:50.519Z,1.24
2023-05-10T03:55:50.471Z,1.21
2023-05-10T03:56:50.475Z,1.23
2023-05-10T03:57:50.542Z,1.23
2023-05-10T03:58:50.483Z,1.18
2023-05-10T03:59:50.495Z,1.24
2023-05-10T04:00:50.495Z,1.24
2023-05-10T04:01:50.662Z,1.22
2023-05-10T04:02:50.596Z,1.25
2023-05-10T04:03:50.717Z,1.25
2023-05-10T04:04:50.634Z,1.21
2023-05-10T04:05:50.725Z,1.25
2023-05-10T04:06:50.751Z,1.27
2023-05-10T04:07:50.762Z,1.26
2023-05-10T04:08:50.797Z,1.27
2023-05-10T04:09:50.842Z,1.26
2023-05-10T04:10:50.876Z,1.27
2023-05-10T04:11:50.917Z,1.26
2023-05-10T04:12:50.965Z,1.27
2023-05-10T04:13:51.005Z,1.25
2023-05-10T04:14:51.027Z,1.25
2023-05-10T04:15:51.103Z,1.27
2023-05-10T04:16:51.279Z,1.25
2023-05-10T04:17:51.174Z,1.22
2023-05-10T04:18:51.196Z,1.26
2023-05-10T04:19:51.264Z,1.26
2023-05-10T04:20:51.274Z,1.29
2023-05-10T04:21:51.298Z,1.28
2023-05-10T04:22:51.369Z,1.22
2023-05-10T04:23:51.389Z,1.24
2023-05-10T04:24:51.404Z,1.30
2023-05-10T04:25:51.448Z,1.25
2023-05-10T04:26:51.486Z,1.25
2023-05-10T04:27:51.519Z,1.23
2023-05-10T04:28:51.591Z,1.24
2023-05-10T04:29:51.588Z,1.27
2023-05-10T04:30:51.594Z,1.27
2023-05-10T04:31:51.590Z,1.27
2023-05-10T04:32:51.616Z,1.27
2023-05-10T04:33:51.611Z,1.28
2023-05-10T04:34:51.623Z,1.27
2023-05-10T04:35:51.626Z,1.27
2023-05-10T04:36:51.607Z,1.28
2023-05-10T04:37:51.614Z,1.30
2023-05-10T04:38:51.608Z,1.29
2023-05-10T04:39:51.611Z,1.29
2023-05-10T04:40:51.606Z,1.28
2023-05-10T04:41:51.611Z,1.28
2023-05-10T04:42:51.612Z,1.30
2023-05-10T04:43:51.618Z,1.29
2023-05-10T04:44:51.623Z,1.27
2023-05-10T04:45:51.724Z,1.29
2023-05-10T04:46:51.618Z,1.29
2023-05-10T04:47:51.650Z,1.30
2023-05-10T04:48:51.625Z,1.29
2023-05-10T04:49:51.617Z,1.31
2023-05-10T04:50:51.620Z,1.32
2023-05-10T04:51:51.615Z,1.26
2023-05-10T04:52:52.703Z,1.27
2023-05-10T04:54:04.669Z,1.27
2023-05-10T04:54:52.612Z,1.27
2023-05-10T04:55:51.599Z,1.27
2023-05-10T04:56:51.599Z,1.27
2023-05-10T04:57:51.598Z,1.30
2023-05-10T04:58:51.611Z,1.30
2023-05-10T04:59:51.635Z,1.29
2023-05-10T05:00:51.605Z,1.29
2023-05-10T05:01:51.647Z,1.30
2023-05-10T05:02:51.659Z,1.30
2023-05-10T05:03:51.673Z,1.30
2023-05-10T05:04:51.588Z,1.30
2023-05-10T05:05:51.628Z,1.30
2023-05-10T05:06:53.761Z,1.30
2023-05-10T05:07:51.587Z,1.31
2023-05-10T05:08:51.635Z,1.32
2023-05-10T05:09:51.653Z,1.28
2023-05-10T05:10:51.688Z,1.29
2023-05-10T05:11:51.737Z,1.28
2023-05-10T05:12:51.806Z,1.31
2023-05-10T05:13:51.833Z,1.28
2023-05-10T05:14:51.862Z,1.29
2023-05-10T05:15:51.916Z,1.25
2023-05-10T05:16:51.950Z,1.26
2023-05-10T05:17:52.016Z,1.28
2023-05-10T05:18:52.031Z,1.28
2023-05-10T05:19:52.078Z,1.28
2023-05-10T05:20:52.119Z,1.28
2023-05-10T05:21:52.153Z,1.27
2023-05-10T05:22:52.196Z,1.24
2023-05-10T05:23:52.244Z,1.25
2023-05-10T05:24:52.277Z,1.28
2023-05-10T05:25:52.327Z,1.26
2023-05-10T05:26:52.392Z,1.27
2023-05-10T05:27:52.420Z,1.26
2023-05-10T05:28:52.519Z,1.28
2023-05-10T05:29:52.775Z,1.27
2023-05-10T05:30:52.586Z,1.28
2023-05-10T05:31:54.806Z,1.33
2023-05-10T05:32:52.725Z,1.35
2023-05-10T05:33:52.683Z,1.44
2023-05-10T05:34:52.638Z,1.43
2023-05-10T05:35:52.670Z,1.47
2023-05-10T05:36:52.639Z,1.44
2023-05-10T05:37:52.628Z,1.52
2023-05-10T05:38:52.663Z,1.69
2023-05-10T05:39:52.652Z,1.69
2023-05-10T05:40:52.673Z,1.72
2023-05-10T05:41:52.644Z,1.81
2023-05-10T05:42:52.679Z,1.97
2023-05-10T05:43:52.651Z,2.28
2023-05-10T05:44:52.656Z,2.40
2023-05-10T05:45:52.666Z,2.40
2023-05-10T05:46:52.839Z,2.86
2023-05-10T05:47:52.705Z,3.18
2023-05-10T05:48:52.656Z,3.40
2023-05-10T05:49:52.621Z,3.76
2023-05-10T05:50:52.616Z,4.13
2023-05-10T05:51:52.636Z,4.54
2023-05-10T05:52:52.622Z,4.85
2023-05-10T05:53:52.592Z,5.20
2023-05-10T05:54:52.598Z,5.56
2023-05-10T05:55:52.594Z,6.06
2023-05-10T05:56:52.767Z,6.56
2023-05-10T05:57:52.617Z,7.15
2023-05-10T05:58:52.689Z,7.65
2023-05-10T05:59:52.616Z,7.91
2023-05-10T06:00:52.623Z,8.32
2023-05-10T06:01:52.597Z,9.08
2023-05-10T06:02:52.605Z,9.54
2023-05-10T06:03:53.417Z,10.09
2023-05-10T06:04:52.595Z,10.12
2023-05-10T06:05:52.544Z,10.26
2023-05-10T06:06:52.550Z,10.59
2023-05-10T06:07:52.572Z,11.29
2023-05-10T06:08:52.549Z,12.20
2023-05-10T06:09:52.595Z,12.44
2023-05-10T06:10:52.522Z,13.09
2023-05-10T06:11:52.538Z,13.27
2023-05-10T06:12:52.642Z,13.31
2023-05-10T06:13:52.516Z,13.40
2023-05-10T06:14:52.522Z,13.76
2023-05-10T06:15:52.520Z,14.25
2023-05-10T06:16:52.674Z,15.18
2023-05-10T06:17:52.571Z,15.50
2023-05-10T06:18:52.498Z,16.01
2023-05-10T06:19:52.506Z,16.10
2023-05-10T06:20:52.478Z,16.15
2023-05-10T06:21:53.810Z,16.57
2023-05-10T06:22:52.483Z,16.21
2023-05-10T06:23:52.448Z,16.56
2023-05-10T06:24:52.439Z,16.71
2023-05-10T06:25:52.447Z,16.73
2023-05-10T06:26:52.441Z,16.70
2023-05-10T06:27:53.905Z,16.79
2023-05-10T06:28:52.488Z,16.74
2023-05-10T06:30:02.095Z,16.84
2023-05-10T06:30:53.422Z,16.75
2023-05-10T06:31:52.605Z,16.87
2023-05-10T06:32:52.449Z,17.06
2023-05-10T06:33:54.164Z,17.31
2023-05-10T06:34:52.404Z,18.20
2023-05-10T06:35:52.354Z,17.41
2023-05-10T06:36:52.353Z,17.17
2023-05-10T06:37:52.328Z,16.80
2023-05-10T06:38:52.327Z,17.74
2023-05-10T06:39:52.298Z,17.88
2023-05-10T06:40:52.294Z,17.63
2023-05-10T06:41:52.302Z,19.23
2023-05-10T06:42:52.272Z,20.93
2023-05-10T06:43:52.261Z,21.29
2023-05-10T06:44:52.237Z,20.37
2023-05-10T06:45:52.309Z,17.56
2023-05-10T06:46:52.290Z,15.32
2023-05-10T06:47:52.241Z,16.28
2023-05-10T06:48:52.184Z,17.02
2023-05-10T06:49:52.228Z,15.25
2023-05-10T06:50:52.223Z,13.37
2023-05-10T06:51:52.185Z,11.76
2023-05-10T06:52:53.157Z,10.30
2023-05-10T06:53:52.137Z,9.59
2023-05-10T06:54:52.153Z,8.92
2023-05-10T06:55:52.109Z,7.85
2023-05-10T06:56:52.180Z,7.30
2023-05-10T06:57:52.092Z,6.76
2023-05-10T06:58:53.065Z,6.51
2023-05-10T06:59:52.095Z,6.25
2023-05-10T07:00:52.092Z,5.68
2023-05-10T07:01:52.098Z,5.58
2023-05-10T07:02:52.162Z,5.41
2023-05-10T07:03:52.039Z,5.08
2023-05-10T07:04:52.035Z,5.14
2023-05-10T07:05:51.999Z,5.24
2023-05-10T07:06:52.010Z,5.16
2023-05-10T07:07:52.057Z,4.90
2023-05-10T07:08:51.963Z,4.81
2023-05-10T07:09:51.965Z,4.74
2023-05-10T07:10:51.940Z,4.66
2023-05-10T07:11:51.939Z,4.47
2023-05-10T07:12:52.040Z,4.38
2023-05-10T07:13:52.255Z,4.39
2023-05-10T07:14:51.903Z,4.39
2023-05-10T07:15:51.910Z,4.19
2023-05-10T07:16:51.880Z,4.21
2023-05-10T07:17:51.925Z,4.07
2023-05-10T07:18:51.875Z,4.03
2023-05-10T07:19:51.889Z,3.80
2023-05-10T07:20:51.863Z,3.83
2023-05-10T07:21:51.865Z,3.85
2023-05-10T07:22:51.787Z,3.91
2023-05-10T07:23:51.846Z,3.93
2023-05-10T07:24:51.828Z,3.97
2023-05-10T07:25:51.796Z,3.98
2023-05-10T07:26:51.846Z,4.02
2023-05-10T07:27:51.785Z,3.89
2023-05-10T07:28:51.810Z,3.94
2023-05-10T07:29:51.827Z,4.03
2023-05-10T07:30:51.838Z,3.94
2023-05-10T07:31:51.838Z,3.80
2023-05-10T07:32:51.785Z,3.82
2023-05-10T07:33:51.800Z,3.77
2023-05-10T07:34:51.770Z,3.80
2023-05-10T07:35:51.747Z,3.87
2023-05-10T07:36:51.748Z,4.22
2023-05-10T07:37:51.739Z,4.23
2023-05-10T07:38:51.798Z,4.30
2023-05-10T07:39:51.737Z,4.41
2023-05-10T07:40:51.715Z,4.45
2023-05-10T07:41:51.700Z,4.56
2023-05-10T07:42:51.663Z,4.58
2023-05-10T07:43:52.603Z,4.71
2023-05-10T07:44:51.623Z,4.92
2023-05-10T07:45:52.283Z,4.87
2023-05-10T07:46:51.780Z,5.01
2023-05-10T07:47:51.747Z,5.03
2023-05-10T07:48:51.683Z,5.26
2023-05-10T07:49:51.757Z,5.40
2023-05-10T07:50:51.787Z,5.43
2023-05-10T07:51:51.851Z,5.71
2023-05-10T07:52:52.536Z,5.92
2023-05-10T07:53:52.506Z,6.19
2023-05-10T07:54:51.971Z,6.37
2023-05-10T07:55:52.051Z,6.47
2023-05-10T07:56:52.075Z,6.86
2023-05-10T07:57:52.091Z,7.18
2023-05-10T07:58:52.132Z,7.46
2023-05-10T07:59:52.192Z,7.30
2023-05-10T08:00:52.198Z,7.55
2023-05-10T08:01:52.249Z,7.77
2023-05-10T08:02:52.417Z,7.64
2023-05-10T08:03:52.512Z,7.96
2023-05-10T08:04:52.435Z,7.86
2023-05-10T08:05:52.393Z,7.93
2023-05-10T08:06:52.498Z,7.93
2023-05-10T08:07:52.494Z,8.23
2023-05-10T08:08:52.512Z,8.41
2023-05-10T08:09:52.545Z,8.35
2023-05-10T08:10:52.580Z,8.38
2023-05-10T08:11:52.627Z,8.36
2023-05-10T08:12:52.610Z,8.71
2023-05-10T08:13:52.648Z,8.90
2023-05-10T08:14:52.736Z,9.40
2023-05-10T08:15:52.733Z,9.63
2023-05-10T08:16:52.681Z,9.66
2023-05-10T08:17:52.662Z,9.72
2023-05-10T08:18:52.685Z,9.88
2023-05-10T08:19:52.743Z,10.01
2023-05-10T08:20:52.586Z,9.67
2023-05-10T08:21:52.604Z,9.77
2023-05-10T08:22:52.565Z,9.89
2023-05-10T08:23:52.576Z,9.68
2023-05-10T08:24:52.601Z,9.85
2023-05-10T08:25:52.475Z,9.96
2023-05-10T08:26:52.464Z,10.32
2023-05-10T08:27:52.425Z,11.04
2023-05-10T08:28:52.415Z,10.98
2023-05-10T08:29:52.363Z,11.25
2023-05-10T08:30:52.374Z,11.60
2023-05-10T08:31:52.369Z,12.22
2023-05-10T08:32:52.333Z,11.64
2023-05-10T08:33:52.284Z,10.69
2023-05-10T08:34:52.278Z,9.89
2023-05-10T08:35:52.269Z,9.41
2023-05-10T08:36:52.304Z,8.37
2023-05-10T08:37:52.304Z,8.40
2023-05-10T08:38:52.390Z,7.69
2023-05-10T08:39:52.434Z,7.00
2023-05-10T08:40:52.416Z,6.35
2023-05-10T08:41:52.448Z,5.72
2023-05-10T08:42:52.524Z,5.37
2023-05-10T08:43:52.639Z,4.62
2023-05-10T08:44:52.676Z,4.63
2023-05-10T08:45:52.650Z,4.53
2023-05-10T08:46:52.742Z,5.04
2023-05-10T08:47:52.762Z,4.99
2023-05-10T08:48:52.834Z,4.76
2023-05-10T08:49:52.846Z,4.62
2023-05-10T08:50:52.882Z,4.47
2023-05-10T08:51:52.946Z,4.29
2023-05-10T08:52:52.903Z,4.25
2023-05-10T08:53:52.898Z,3.84
2023-05-10T08:54:52.871Z,3.70
2023-05-10T08:55:52.845Z,3.67
2023-05-10T08:56:52.848Z,3.49
2023-05-10T08:57:52.838Z,3.41
2023-05-10T08:58:52.801Z,3.20
2023-05-10T08:59:52.794Z,3.04
2023-05-10T09:00:52.883Z,3.04
2023-05-10T09:01:52.767Z,2.82
2023-05-10T09:02:52.792Z,2.80
2023-05-10T09:03:52.848Z,2.73
2023-05-10T09:04:52.808Z,2.61
2023-05-10T09:05:52.712Z,2.58
2023-05-10T09:06:52.686Z,2.60
2023-05-10T09:07:52.677Z,2.58
2023-05-10T09:08:52.649Z,2.49
2023-05-10T09:09:52.635Z,2.42
2023-05-10T09:10:52.657Z,2.47
2023-05-10T09:11:52.615Z,2.35
2023-05-10T09:12:52.613Z,2.30
2023-05-10T09:13:52.584Z,2.30
2023-05-10T09:14:52.579Z,2.23
2023-05-10T09:15:52.611Z,2.17
2023-05-10T09:16:52.709Z,2.26
2023-05-10T09:17:52.835Z,2.24
2023-05-10T09:18:52.854Z,2.17
2023-05-10T09:19:52.798Z,2.12
2023-05-10T09:20:52.840Z,2.03
2023-05-10T09:21:52.897Z,2.02
2023-05-10T09:22:52.932Z,2.05
2023-05-10T09:23:52.970Z,1.99
2023-05-10T09:24:52.976Z,1.88
2023-05-10T09:25:53.046Z,1.89
2023-05-10T09:26:53.117Z,1.84
2023-05-10T09:27:53.144Z,1.86
2023-05-10T09:28:53.298Z,1.78
2023-05-10T09:29:53.198Z,1.75
2023-05-10T09:30:53.313Z,1.75
2023-05-10T09:31:53.254Z,1.77
2023-05-10T09:32:53.352Z,1.75
2023-05-10T09:33:53.356Z,1.76
2023-05-10T09:34:53.394Z,1.51
2023-05-10T09:35:53.511Z,1.50
2023-05-10T09:36:53.471Z,1.55
2023-05-10T09:37:53.471Z,1.45
2023-05-10T09:38:53.595Z,1.42
2023-05-10T09:39:53.542Z,1.46
2023-05-10T09:40:53.590Z,1.77
2023-05-10T09:41:53.621Z,2.12
2023-05-10T09:42:53.590Z,2.13
2023-05-10T09:43:53.553Z,2.20
2023-05-10T09:44:53.620Z,2.15
2023-05-10T09:45:53.596Z,2.27
2023-05-10T09:46:53.532Z,2.49
2023-05-10T09:47:53.666Z,3.05
2023-05-10T09:48:53.489Z,4.05
2023-05-10T09:49:53.477Z,4.33
2023-05-10T09:50:53.561Z,4.64
2023-05-10T09:51:53.463Z,4.69
2023-05-10T09:52:53.489Z,4.81
2023-05-10T09:53:53.635Z,3.94
2023-05-10T09:54:53.595Z,3.69
2023-05-10T09:55:53.785Z,4.18
2023-05-10T09:56:53.727Z,4.20
2023-05-10T09:57:53.754Z,4.92
2023-05-10T09:58:53.853Z,5.30
2023-05-10T09:59:53.785Z,5.48
2023-05-10T10:00:53.856Z,5.75
2023-05-10T10:01:53.942Z,5.37
2023-05-10T10:02:53.931Z,5.15
2023-05-10T10:03:53.961Z,4.95
2023-05-10T10:04:54.054Z,5.55
2023-05-10T10:05:54.073Z,5.88
2023-05-10T10:06:54.039Z,5.90
2023-05-10T10:07:54.586Z,6.00
2023-05-10T10:08:55.649Z,6.18
2023-05-10T10:09:53.979Z,6.84
2023-05-10T10:10:53.976Z,7.69
2023-05-10T10:11:53.948Z,7.61
2023-05-10T10:12:53.912Z,7.97
2023-05-10T10:13:53.912Z,8.54
2023-05-10T10:14:53.877Z,8.33
2023-05-10T10:15:54.194Z,8.68
2023-05-10T10:17:06.838Z,9.02
2023-05-10T10:17:54.871Z,9.03
2023-05-10T10:18:53.897Z,9.02
2023-05-10T10:19:53.827Z,8.91
2023-05-10T10:20:53.768Z,8.76
2023-05-10T10:21:53.754Z,7.50
2023-05-10T10:22:53.720Z,7.06
2023-05-10T10:23:53.719Z,7.97
2023-05-10T10:24:53.695Z,8.50
2023-05-10T10:25:53.693Z,8.63
2023-05-10T10:26:53.700Z,8.63
2023-05-10T10:27:53.742Z,8.53
2023-05-10T10:28:53.803Z,8.46
2023-05-10T10:29:53.805Z,8.53
2023-05-10T10:30:53.878Z,8.42
2023-05-10T10:31:54.014Z,8.54
2023-05-10T10:32:53.966Z,8.90
2023-05-10T10:33:53.993Z,8.75
2023-05-10T10:34:54.021Z,8.18
2023-05-10T10:35:54.050Z,6.53
2023-05-10T10:36:54.124Z,5.57
2023-05-10T10:37:54.361Z,5.72
2023-05-10T10:38:54.507Z,5.18
2023-05-10T10:39:54.316Z,5.91
2023-05-10T10:40:54.298Z,6.48
2023-05-10T10:41:54.348Z,6.75
2023-05-10T10:42:54.372Z,6.60
2023-05-10T10:43:54.373Z,6.48
2023-05-10T10:44:54.419Z,6.36
2023-05-10T10:45:54.483Z,5.54
2023-05-10T10:46:54.534Z,5.08
2023-05-10T10:47:54.620Z,4.48
2023-05-10T10:48:54.604Z,4.17
2023-05-10T10:49:54.658Z,3.98
2023-05-10T10:50:54.732Z,3.50
2023-05-10T10:51:54.757Z,3.19
2023-05-10T10:52:54.982Z,2.95
2023-05-10T10:53:54.838Z,2.73
2023-05-10T10:54:54.911Z,2.65
2023-05-10T10:55:54.975Z,2.40
2023-05-10T10:56:54.974Z,2.28
2023-05-10T10:57:55.046Z,2.18
2023-05-10T10:58:55.076Z,2.08
2023-05-10T10:59:55.125Z,1.83
2023-05-10T11:00:55.198Z,1.74
2023-05-10T11:01:55.193Z,1.63
2023-05-10T11:02:55.227Z,1.50
2023-05-10T11:03:55.236Z,1.61
2023-05-10T11:04:55.196Z,1.64
2023-05-10T11:05:55.227Z,1.58
2023-05-10T11:06:55.226Z,1.58
2023-05-10T11:07:55.233Z,1.57
2023-05-10T11:08:55.371Z,1.66
2023-05-10T11:09:55.233Z,1.67
2023-05-10T11:10:55.390Z,1.80
2023-05-10T11:11:55.209Z,2.19
2023-05-10T11:12:55.186Z,2.86
2023-05-10T11:13:55.177Z,3.79
2023-05-10T11:14:55.147Z,4.00
2023-05-10T11:15:55.144Z,4.00
2023-05-10T11:16:55.148Z,4.03
2023-05-10T11:17:55.102Z,4.02
2023-05-10T11:18:55.163Z,3.93
2023-05-10T11:19:55.048Z,3.75
2023-05-10T11:20:55.087Z,3.40
2023-05-10T11:21:55.115Z,3.41
2023-05-10T11:22:55.119Z,3.52
2023-05-10T11:23:56.028Z,3.72
2023-05-10T11:24:55.212Z,3.98
2023-05-10T11:25:55.354Z,3.85
2023-05-10T11:26:55.372Z,4.16
2023-05-10T11:27:55.316Z,4.18
2023-05-10T11:28:55.349Z,4.08
2023-05-10T11:29:55.403Z,4.31
2023-05-10T11:30:55.432Z,4.29
2023-05-10T11:31:55.497Z,4.36
2023-05-10T11:32:55.537Z,4.39
2023-05-10T11:33:55.521Z,4.39
2023-05-10T11:34:55.523Z,4.47
2023-05-10T11:35:55.563Z,4.41
2023-05-10T11:36:55.555Z,4.42
2023-05-10T11:37:55.609Z,4.36
2023-05-10T11:38:55.610Z,4.12
2023-05-10T11:39:55.756Z,4.15
2023-05-10T11:40:55.680Z,4.13
2023-05-10T11:41:55.634Z,4.14
2023-05-10T11:42:55.640Z,4.15
2023-05-10T11:43:55.625Z,4.15
2023-05-10T11:44:55.609Z,4.09
2023-05-10T11:45:55.723Z,4.05
2023-05-10T11:46:55.583Z,3.86
2023-05-10T11:47:55.641Z,3.80
2023-05-10T11:48:55.545Z,3.74
2023-05-10T11:49:55.683Z,3.69
2023-05-10T11:50:55.514Z,3.55
2023-05-10T11:51:55.605Z,3.59
2023-05-10T11:52:55.553Z,3.55
2023-05-10T11:53:55.605Z,3.46
2023-05-10T11:54:55.776Z,3.49
2023-05-10T11:55:55.749Z,3.36
2023-05-10T11:56:55.729Z,3.39
2023-05-10T11:57:55.793Z,3.44
2023-05-10T11:58:55.798Z,3.44
2023-05-10T11:59:55.869Z,3.38
2023-05-10T12:00:55.947Z,3.38
2023-05-10T12:01:55.837Z,3.38
2023-05-10T12:02:55.860Z,3.39
2023-05-10T12:03:56.193Z,3.29
2023-05-10T12:04:56.240Z,3.10
2023-05-10T12:05:55.866Z,3.14
2023-05-10T12:06:55.859Z,3.00
2023-05-10T12:07:55.767Z,3.17
2023-05-10T12:08:55.748Z,3.17
2023-05-10T12:09:55.749Z,3.18
2023-05-10T12:10:55.779Z,3.23
2023-05-10T12:11:55.731Z,3.22
2023-05-10T12:12:56.714Z,3.19
2023-05-10T12:13:55.731Z,3.11
2023-05-10T12:14:55.694Z,3.02
2023-05-10T12:15:55.704Z,3.08
2023-05-10T12:16:55.742Z,2.97
2023-05-10T12:17:55.817Z,2.99
2023-05-10T12:18:55.708Z,3.08
2023-05-10T12:19:55.734Z,2.98
2023-05-10T12:20:55.768Z,3.02
2023-05-10T12:21:55.768Z,2.90
2023-05-10T12:22:56.952Z,2.94
2023-05-10T12:23:55.851Z,2.86
2023-05-10T12:24:55.828Z,2.89
2023-05-10T12:25:55.901Z,2.89
2023-05-10T12:26:55.782Z,2.89
2023-05-10T12:27:55.909Z,2.89
2023-05-10T12:28:55.747Z,2.74
2023-05-10T12:29:55.769Z,2.80
2023-05-10T12:30:55.745Z,2.69
2023-05-10T12:31:56.278Z,2.67
2023-05-10T12:32:55.729Z,2.63
2023-05-10T12:33:55.686Z,2.50
2023-05-10T12:34:55.681Z,2.65
2023-05-10T12:35:55.682Z,2.73
2023-05-10T12:36:55.655Z,2.70
2023-05-10T12:37:55.638Z,2.66
2023-05-10T12:38:55.616Z,2.57
2023-05-10T12:39:55.601Z,2.67
2023-05-10T12:40:55.669Z,2.64
2023-05-10T12:41:55.594Z,2.60
2023-05-10T12:42:55.617Z,2.70
2023-05-10T12:43:55.555Z,2.69
2023-05-10T12:44:55.540Z,2.58
2023-05-10T12:45:55.592Z,2.63
2023-05-10T12:46:55.537Z,2.59
2023-05-10T12:47:55.585Z,2.64
2023-05-10T12:49:07.596Z,2.52
2023-05-10T12:49:56.547Z,2.52
2023-05-10T12:50:55.532Z,2.55
2023-05-10T12:51:55.575Z,2.54
2023-05-10T12:52:55.524Z,2.55
2023-05-10T12:53:55.526Z,2.53
2023-05-10T12:54:55.490Z,2.50
2023-05-10T12:55:55.478Z,2.49
2023-05-10T12:56:56.042Z,2.46
2023-05-10T12:57:55.483Z,2.42
2023-05-10T12:58:55.500Z,2.26
2023-05-10T12:59:55.466Z,2.30
2023-05-10T13:00:55.445Z,2.24
2023-05-10T13:01:55.433Z,2.32
2023-05-10T13:02:55.405Z,2.37
2023-05-10T13:03:55.404Z,2.37
2023-05-10T13:04:55.432Z,2.36
2023-05-10T13:05:55.373Z,2.31
2023-05-10T13:06:55.393Z,2.21
2023-05-10T13:07:55.352Z,2.30
2023-05-10T13:08:55.340Z,2.41
2023-05-10T13:09:55.354Z,2.37
2023-05-10T13:10:55.306Z,2.28
2023-05-10T13:11:55.312Z,2.23
2023-05-10T13:12:55.311Z,2.28
2023-05-10T13:13:55.323Z,2.29
2023-05-10T13:14:55.287Z,2.27
2023-05-10T13:15:55.292Z,2.26
2023-05-10T13:16:55.306Z,2.35